Time;durP1;ratioP1;P1;durP2;ratioP2;P2;SDS_P1;SDS_P2;PMS_P1;PMS_P2;Temp;Humidity;BMP_temperature;BMP_pressure;BME280_temperature;BME280_humidity;BME280_pressure;Samples;Min_cycle;Max_cycle;Signal;HPM_P1;HPM_P2
2023/03/03 00:00:13;;;;;;;0.30;0.30;;;1.50;99.90;;;;;;5067539;28;20102;-84
2023/03/03 00:02:39;;;;;;;1.58;1.23;;;1.50;99.90;;;;;;5067704;28;20128;-83
2023/03/03 00:05:05;;;;;;;2.03;1.80;;;1.50;99.90;;;;;;5066334;28;20398;-83
2023/03/03 00:07:31;;;;;;;0.70;0.70;;;1.50;99.90;;;;;;5065593;28;20076;-83
2023/03/03 00:09:57;;;;;;;0.43;0.43;;;1.50;99.90;;;;;;5067254;28;20041;-83
2023/03/03 00:12:29;;;;;;;1.65;1.38;;;1.60;99.90;;;;;;5066082;28;20449;-84
2023/03/03 00:14:54;;;;;;;1.02;0.47;;;1.60;99.90;;;;;;5066390;28;20041;-85
2023/03/03 00:17:26;;;;;;;1.38;1.27;;;1.60;99.90;;;;;;5064902;28;20502;-83
2023/03/03 00:19:52;;;;;;;0.90;0.85;;;1.60;99.90;;;;;;5067099;28;20100;-85
2023/03/03 00:22:35;;;;;;;0.52;0.52;;;1.60;99.90;;;;;;5066154;28;20091;-83
2023/03/03 00:25:22;;;;;;;0.10;0.10;;;1.60;99.90;;;;;;5066582;28;20037;-83
2023/03/03 00:27:48;;;;;;;1.45;0.63;;;1.60;99.90;;;;;;5061492;28;20075;-83
2023/03/03 00:30:26;;;;;;;0.75;0.75;;;1.60;99.90;;;;;;5066547;28;20048;-84
2023/03/03 00:32:53;;;;;;;2.95;1.92;;;1.60;99.90;;;;;;5066311;28;20037;-83
2023/03/03 00:35:28;;;;;;;1.48;1.15;;;1.70;99.90;;;;;;5048258;28;20116;-84
2023/03/03 00:37:59;;;;;;;4.27;2.07;;;1.70;99.90;;;;;;5066199;28;20097;-83
2023/03/03 00:40:34;;;;;;;0.22;0.22;;;1.70;99.90;;;;;;5066952;28;20368;-83
2023/03/03 00:43:01;;;;;;;2.17;1.75;;;1.70;99.90;;;;;;5063283;28;20037;-83
2023/03/03 00:45:33;;;;;;;0.68;0.68;;;1.70;99.90;;;;;;5065903;28;20048;-83
2023/03/03 00:48:08;;;;;;;0.82;0.82;;;1.70;99.90;;;;;;5065674;28;20076;-84
2023/03/03 00:50:35;;;;;;;0.17;0.17;;;1.70;99.90;;;;;;5066510;28;20051;-84
2023/03/03 00:53:20;;;;;;;0.20;0.20;;;1.70;99.90;;;;;;5065345;28;20052;-83
2023/03/03 00:55:47;;;;;;;0.65;0.65;;;1.70;99.90;;;;;;5065610;28;20041;-84
2023/03/03 00:58:13;;;;;;;1.55;1.08;;;1.70;99.90;;;;;;5066057;28;20426;-83
2023/03/03 01:00:40;;;;;;;2.35;1.15;;;1.70;99.90;;;;;;5065869;28;20045;-85
2023/03/03 01:03:08;;;;;;;0.10;0.10;;;1.70;99.90;;;;;;5058739;28;20045;-83
2023/03/03 01:05:35;;;;;;;0.10;0.10;;;1.70;99.90;;;;;;5058515;28;20037;-84
2023/03/03 01:08:01;;;;;;;2.25;1.38;;;1.70;99.90;;;;;;5059564;28;20041;-84
2023/03/03 01:10:31;;;;;;;0.17;0.17;;;1.70;99.90;;;;;;5058098;28;20052;-84
2023/03/03 01:12:57;;;;;;;1.13;1.05;;;1.70;99.90;;;;;;5056662;28;20073;-84
2023/03/03 01:15:23;;;;;;;1.15;1.05;;;1.70;99.90;;;;;;5057492;28;20467;-84
2023/03/03 01:17:50;;;;;;;0.47;0.43;;;1.70;99.90;;;;;;5057972;28;20079;-84
2023/03/03 01:20:16;;;;;;;0.77;0.77;;;1.70;99.90;;;;;;5056111;28;20051;-84
2023/03/03 01:22:42;;;;;;;0.47;0.38;;;1.70;99.90;;;;;;5057502;28;20119;-84
2023/03/03 01:25:08;;;;;;;0.47;0.47;;;1.70;99.90;;;;;;5057658;28;20037;-83
2023/03/03 01:27:35;;;;;;;0.10;0.10;;;1.70;99.90;;;;;;5057869;28;20052;-84
2023/03/03 01:30:01;;;;;;;0.45;0.45;;;1.70;99.90;;;;;;5057796;28;20044;-84
2023/03/03 01:32:28;;;;;;;1.50;1.27;;;1.70;99.90;;;;;;5058592;28;20048;-83
2023/03/03 01:34:53;;;;;;;0.75;0.75;;;1.70;99.90;;;;;;5057553;28;20032;-84
2023/03/03 01:37:19;;;;;;;0.75;0.60;;;1.70;99.90;;;;;;5056803;28;20110;-85
2023/03/03 01:39:53;;;;;;;0.22;0.22;;;1.70;99.90;;;;;;5058320;28;20049;-84
2023/03/03 01:42:20;;;;;;;1.40;1.08;;;1.70;99.90;;;;;;5057559;28;20075;-84
2023/03/03 01:44:46;;;;;;;0.17;0.17;;;1.70;99.90;;;;;;5056528;28;20057;-84
2023/03/03 01:47:19;;;;;;;1.00;1.00;;;1.70;99.90;;;;;;5058710;28;20739;-84
2023/03/03 01:49:52;;;;;;;0.45;0.45;;;1.70;99.90;;;;;;5057863;28;20182;-84
2023/03/03 01:52:35;;;;;;;0.00;0.00;;;1.70;99.90;;;;;;5057021;28;20611;-84
2023/03/03 01:55:14;;;;;;;0.20;0.20;;;1.70;99.90;;;;;;5057164;28;20045;-84
2023/03/03 01:57:48;;;;;;;1.45;0.63;;;1.70;99.90;;;;;;5057365;28;20041;-84
2023/03/03 02:00:15;;;;;;;0.35;0.35;;;1.70;99.90;;;;;;5057566;28;20048;-84
2023/03/03 02:02:42;;;;;;;0.10;0.10;;;1.70;99.90;;;;;;5057706;28;20120;-83
2023/03/03 02:05:09;;;;;;;0.40;0.40;;;1.70;99.90;;;;;;5056972;28;20048;-84
2023/03/03 02:07:36;;;;;;;0.55;0.55;;;1.70;99.90;;;;;;5055301;28;20041;-83
2023/03/03 02:10:08;;;;;;;1.15;1.08;;;1.70;99.90;;;;;;5057680;28;20067;-84
2023/03/03 02:12:52;;;;;;;0.50;0.50;;;1.70;99.90;;;;;;5040581;28;20048;-83
2023/03/03 02:15:25;;;;;;;0.10;0.10;;;1.70;99.90;;;;;;5055740;28;20049;-84
2023/03/03 02:17:58;;;;;;;0.80;0.80;;;1.70;99.90;;;;;;5088743;28;20095;-84
2023/03/03 02:20:43;;;;;;;0.35;0.35;;;1.70;99.90;;;;;;5057464;28;20045;-84
2023/03/03 02:23:16;;;;;;;0.45;0.45;;;1.70;99.90;;;;;;5056232;28;20045;-84
2023/03/03 02:25:53;;;;;;;0.30;0.30;;;1.70;99.90;;;;;;5057211;28;20095;-83
2023/03/03 02:28:20;;;;;;;0.60;0.60;;;1.70;99.90;;;;;;5057125;28;20053;-83
2023/03/03 02:30:45;;;;;;;19.30;1.30;;;1.70;99.90;;;;;;5056404;28;20138;-84
2023/03/03 02:33:11;;;;;;;1.25;0.73;;;1.80;99.90;;;;;;5056570;28;20053;-83
2023/03/03 02:35:39;;;;;;;0.75;0.73;;;1.80;99.90;;;;;;5054485;28;20077;-83
2023/03/03 02:38:28;;;;;;;0.30;0.30;;;1.80;99.90;;;;;;5088613;28;20167;-84
2023/03/03 02:41:17;;;;;;;0.30;0.30;;;1.70;99.90;;;;;;5054903;28;20079;-83
2023/03/03 02:44:08;;;;;;;0.20;0.20;;;1.70;99.90;;;;;;5054128;28;20083;-84
2023/03/03 02:46:38;;;;;;;0.32;0.32;;;1.70;99.90;;;;;;5053015;28;20095;-84
2023/03/03 02:49:05;;;;;;;0.00;0.00;;;1.70;99.90;;;;;;5057043;28;20052;-84
2023/03/03 02:51:31;;;;;;;0.32;0.32;;;1.70;99.90;;;;;;5057171;28;20041;-84
2023/03/03 02:53:57;;;;;;;1.17;1.08;;;1.70;99.90;;;;;;5056360;28;20050;-84
2023/03/03 02:56:23;;;;;;;0.55;0.55;;;1.60;99.90;;;;;;5056436;28;20067;-84
2023/03/03 02:58:49;;;;;;;0.52;0.52;;;1.60;99.90;;;;;;5057243;28;20394;-84
2023/03/03 03:01:15;;;;;;;0.28;0.28;;;2.60;99.90;;;;;;5055870;28;20075;-84
2023/03/03 03:03:41;;;;;;;0.75;0.75;;;1.60;99.90;;;;;;5056477;28;20041;-84
2023/03/03 03:06:07;;;;;;;0.30;0.30;;;1.60;99.90;;;;;;5054775;28;20123;-84
2023/03/03 03:08:32;;;;;;;0.10;0.10;;;1.30;99.90;;;;;;5055827;28;20561;-84
2023/03/03 03:10:58;;;;;;;0.05;0.05;;;1.60;99.90;;;;;;5055185;28;20444;-84
2023/03/03 03:13:25;;;;;;;0.30;0.30;;;1.50;99.90;;;;;;5055306;28;20168;-84
2023/03/03 03:15:51;;;;;;;0.85;0.73;;;1.50;99.90;;;;;;5054437;28;20445;-84
2023/03/03 03:18:16;;;;;;;0.15;0.15;;;1.40;99.90;;;;;;5057831;28;20071;-84
2023/03/03 03:20:42;;;;;;;0.00;0.00;;;1.40;99.90;;;;;;5057174;28;20044;-84
2023/03/03 03:23:09;;;;;;;0.00;0.00;;;1.40;99.90;;;;;;5058944;28;20576;-84
2023/03/03 03:25:41;;;;;;;0.40;0.40;;;1.40;99.90;;;;;;5056124;28;20059;-83
2023/03/03 03:28:07;;;;;;;0.00;0.00;;;1.30;99.90;;;;;;5057292;28;20049;-84
2023/03/03 03:30:34;;;;;;;0.63;0.63;;;1.30;99.90;;;;;;5058622;28;20087;-84
2023/03/03 03:33:00;;;;;;;0.15;0.15;;;1.30;99.90;;;;;;5057775;28;20049;-84
2023/03/03 03:35:27;;;;;;;1.27;1.00;;;1.30;99.90;;;;;;5056446;28;20102;-83
2023/03/03 03:37:52;;;;;;;0.82;0.80;;;1.30;99.90;;;;;;5058557;28;20045;-84
2023/03/03 03:40:18;;;;;;;0.32;0.32;;;1.20;99.90;;;;;;5058773;28;20498;-84
2023/03/03 03:42:44;;;;;;;0.63;0.63;;;1.20;99.90;;;;;;5058420;28;20056;-83
2023/03/03 03:45:14;;;;;;;0.38;0.38;;;1.20;99.90;;;;;;5057204;28;20091;-83
2023/03/03 03:47:41;;;;;;;0.00;0.00;;;1.20;99.90;;;;;;5059442;28;20475;-83
2023/03/03 03:50:08;;;;;;;0.00;0.00;;;1.20;99.90;;;;;;5058363;28;20057;-83
2023/03/03 03:52:33;;;;;;;0.08;0.08;;;1.10;99.90;;;;;;5058738;28;20653;-84
2023/03/03 03:54:59;;;;;;;0.40;0.40;;;1.10;99.90;;;;;;5058440;28;20076;-84
2023/03/03 03:57:25;;;;;;;0.32;0.32;;;1.10;99.90;;;;;;5058017;28;20037;-83
2023/03/03 03:59:51;;;;;;;0.63;0.47;;;1.10;99.90;;;;;;5058704;28;20041;-83
2023/03/03 04:02:17;;;;;;;0.30;0.30;;;1.10;99.90;;;;;;5058754;28;20049;-83
2023/03/03 04:04:42;;;;;;;0.73;0.63;;;1.10;99.90;;;;;;5058521;28;20053;-83
2023/03/03 04:07:08;;;;;;;0.00;0.00;;;1.10;99.90;;;;;;5057303;28;20049;-84
2023/03/03 04:09:34;;;;;;;1.08;0.95;;;1.00;99.90;;;;;;5057647;28;20049;-83
2023/03/03 04:12:00;;;;;;;0.10;0.10;;;1.00;99.90;;;;;;5058437;28;20100;-83
2023/03/03 04:14:25;;;;;;;0.05;0.05;;;1.00;99.90;;;;;;5057349;28;20033;-84
2023/03/03 04:16:51;;;;;;;1.00;1.00;;;1.00;99.90;;;;;;5058004;28;20048;-84
2023/03/03 04:19:17;;;;;;;0.10;0.10;;;0.90;99.90;;;;;;5057814;28;20101;-84
2023/03/03 04:21:43;;;;;;;0.00;0.00;;;0.90;99.90;;;;;;5058770;28;20048;-85
2023/03/03 04:24:08;;;;;;;0.25;0.25;;;0.90;99.90;;;;;;5057657;28;20045;-85
2023/03/03 04:26:34;;;;;;;0.20;0.20;;;0.90;99.90;;;;;;5058520;28;20456;-84
2023/03/03 04:29:00;;;;;;;0.10;0.10;;;0.80;99.90;;;;;;5057504;28;20065;-84
2023/03/03 04:31:26;;;;;;;0.10;0.10;;;0.80;99.90;;;;;;5058211;28;20056;-84
2023/03/03 04:33:52;;;;;;;1.25;1.15;;;0.80;99.90;;;;;;5058051;28;20493;-84
2023/03/03 04:36:19;;;;;;;0.00;0.00;;;0.80;99.90;;;;;;5058867;28;20041;-85
2023/03/03 04:38:45;;;;;;;0.08;0.08;;;0.80;99.90;;;;;;5057791;28;20076;-84
2023/03/03 04:41:10;;;;;;;0.35;0.35;;;0.70;99.90;;;;;;5057851;28;20068;-84
2023/03/03 04:43:37;;;;;;;0.00;0.00;;;0.70;99.90;;;;;;5058919;28;20152;-85
2023/03/03 04:46:03;;;;;;;1.20;1.10;;;0.70;99.90;;;;;;5058392;28;20155;-84
2023/03/03 04:48:28;;;;;;;0.00;0.00;;;0.70;99.90;;;;;;5056786;28;20076;-85
2023/03/03 04:50:54;;;;;;;0.00;0.00;;;0.60;99.90;;;;;;5056594;28;20099;-84
2023/03/03 04:53:20;;;;;;;1.27;0.82;;;0.60;99.90;;;;;;5056995;28;20433;-84
2023/03/03 04:55:49;;;;;;;0.10;0.10;;;0.60;99.90;;;;;;5057807;28;20625;-84
2023/03/03 04:58:15;;;;;;;0.00;0.00;;;0.60;99.90;;;;;;5057639;28;20079;-84
2023/03/03 05:00:41;;;;;;;0.30;0.30;;;0.60;99.90;;;;;;5057835;28;20044;-85
2023/03/03 05:03:09;;;;;;;0.00;0.00;;;0.60;99.90;;;;;;5057174;28;20044;-85
2023/03/03 05:05:35;;;;;;;0.22;0.22;;;0.50;99.90;;;;;;5058390;28;20060;-84
2023/03/03 05:08:00;;;;;;;0.00;0.00;;;0.50;99.90;;;;;;5058100;28;20217;-84
2023/03/03 05:10:26;;;;;;;0.15;0.15;;;0.50;99.90;;;;;;5058388;28;20048;-84
2023/03/03 05:12:52;;;;;;;0.00;0.00;;;0.40;99.90;;;;;;5058269;28;20100;-84
2023/03/03 05:15:18;;;;;;;0.10;0.10;;;0.40;99.90;;;;;;5057305;28;20097;-84
2023/03/03 05:17:43;;;;;;;0.00;0.00;;;0.30;99.90;;;;;;5058072;28;20650;-85
2023/03/03 05:20:10;;;;;;;0.30;0.30;;;1.10;99.90;;;;;;5056770;28;20095;-85
2023/03/03 05:22:36;;;;;;;0.00;0.00;;;0.10;99.90;;;;;;5039925;28;20107;-84
2023/03/03 05:25:02;;;;;;;0.43;0.43;;;0.10;99.90;;;;;;5057713;28;20303;-84
2023/03/03 05:27:28;;;;;;;0.10;0.10;;;-0.10;99.90;;;;;;5057079;28;20048;-86
2023/03/03 05:29:53;;;;;;;0.70;0.70;;;-0.10;99.90;;;;;;5057465;28;20044;-84
2023/03/03 05:32:19;;;;;;;0.28;0.28;;;-0.10;99.90;;;;;;5056662;28;20112;-84
2023/03/03 05:34:45;;;;;;;0.00;0.00;;;-0.20;99.90;;;;;;5080302;28;20471;-84
2023/03/03 05:37:10;;;;;;;0.00;0.00;;;-0.20;99.90;;;;;;5054690;28;20510;-84
2023/03/03 05:39:36;;;;;;;0.20;0.20;;;-0.30;99.90;;;;;;5057075;28;20041;-84
2023/03/03 05:42:02;;;;;;;0.00;0.00;;;-0.40;99.90;;;;;;5056767;28;20397;-84
2023/03/03 05:44:27;;;;;;;0.00;0.00;;;-0.40;99.90;;;;;;5056145;28;20138;-84
2023/03/03 05:46:55;;;;;;;0.52;0.38;;;-0.50;99.90;;;;;;5056907;28;20150;-84
2023/03/03 05:49:21;;;;;;;0.00;0.00;;;-0.60;99.90;;;;;;5057316;28;20044;-85
2023/03/03 05:51:46;;;;;;;0.30;0.30;;;-0.70;99.90;;;;;;5057595;28;20064;-84
2023/03/03 05:54:12;;;;;;;0.00;0.00;;;-0.70;99.90;;;;;;5057761;28;20041;-84
2023/03/03 05:56:38;;;;;;;0.00;0.00;;;-0.80;99.90;;;;;;5051417;28;20053;-85
2023/03/03 05:59:03;;;;;;;0.00;0.00;;;-0.80;99.90;;;;;;5038698;28;20041;-84
2023/03/03 06:01:29;;;;;;;0.00;0.00;;;-0.90;99.90;;;;;;5037700;28;20041;-84
2023/03/03 06:03:55;;;;;;;0.30;0.30;;;-0.60;99.90;;;;;;5036842;28;20097;-84
2023/03/03 06:06:20;;;;;;;0.00;0.00;;;-0.50;99.90;;;;;;5039076;28;20106;-84
2023/03/03 06:08:46;;;;;;;0.20;0.20;;;-0.60;99.90;;;;;;5059169;28;20049;-84
2023/03/03 06:11:12;;;;;;;0.00;0.00;;;-0.70;99.90;;;;;;5050242;28;20045;-84
2023/03/03 06:13:40;;;;;;;0.10;0.10;;;-0.70;99.90;;;;;;5042435;28;20056;-84
2023/03/03 06:16:06;;;;;;;0.47;0.47;;;-0.80;99.90;;;;;;5045477;28;20037;-85
2023/03/03 06:18:32;;;;;;;0.20;0.20;;;-0.80;99.90;;;;;;5045035;28;20053;-84
2023/03/03 06:20:58;;;;;;;0.00;0.00;;;-0.90;99.90;;;;;;5056110;28;20483;-84
2023/03/03 06:23:23;;;;;;;0.03;0.03;;;-0.90;99.90;;;;;;5078975;28;20037;-84
2023/03/03 06:25:49;;;;;;;0.00;0.00;;;-0.90;99.90;;;;;;5049714;28;20046;-84
2023/03/03 06:28:15;;;;;;;0.15;0.15;;;-1.00;99.90;;;;;;5089529;28;20088;-84
2023/03/03 06:30:40;;;;;;;0.10;0.10;;;-1.00;99.90;;;;;;5047554;28;20037;-85
2023/03/03 06:33:06;;;;;;;0.10;0.10;;;-1.00;99.90;;;;;;5058439;28;20041;-85
2023/03/03 06:35:32;;;;;;;0.17;0.17;;;-1.10;99.90;;;;;;5049968;28;20044;-84
2023/03/03 06:37:57;;;;;;;0.13;0.10;;;-1.10;99.90;;;;;;5057788;28;20071;-84
2023/03/03 06:40:23;;;;;;;0.00;0.00;;;-1.10;99.90;;;;;;5056440;28;20056;-84
2023/03/03 06:42:49;;;;;;;0.00;0.00;;;-1.00;99.90;;;;;;5090107;28;20108;-85
2023/03/03 06:45:15;;;;;;;0.00;0.00;;;-1.00;99.90;;;;;;5056495;28;20499;-85
2023/03/03 06:47:41;;;;;;;0.00;0.00;;;-1.00;99.90;;;;;;5056904;28;20128;-85
2023/03/03 06:50:09;;;;;;;0.00;0.00;;;-1.00;99.90;;;;;;5057890;28;20054;-84
2023/03/03 06:52:34;;;;;;;0.20;0.20;;;-0.90;99.90;;;;;;5089308;28;20045;-84
2023/03/03 06:55:08;;;;;;;0.00;0.00;;;-0.90;99.90;;;;;;5060184;28;20052;-85
2023/03/03 06:57:34;;;;;;;0.00;0.00;;;-0.90;99.90;;;;;;5061025;28;20063;-84
2023/03/03 07:00:26;;;;;;;0.32;0.32;;;-0.90;99.90;;;;;;5060459;28;20064;-84
2023/03/03 07:03:11;;;;;;;0.00;0.00;;;-0.80;99.90;;;;;;5061041;28;20048;-84
2023/03/03 07:05:36;;;;;;;0.13;0.13;;;-0.80;99.90;;;;;;5089863;28;20084;-84
2023/03/03 07:08:11;;;;;;;0.08;0.08;;;-0.80;99.90;;;;;;5093203;28;20036;-85
2023/03/03 07:10:38;;;;;;;0.17;0.17;;;-0.70;99.90;;;;;;5061764;28;20049;-84
2023/03/03 07:13:25;;;;;;;0.55;0.50;;;-0.70;99.90;;;;;;5085282;28;20052;-84
2023/03/03 07:15:57;;;;;;;0.10;0.10;;;-0.50;99.90;;;;;;5052782;28;20395;-84
2023/03/03 07:18:31;;;;;;;0.00;0.00;;;-0.40;99.90;;;;;;5084128;28;20060;-84
2023/03/03 07:20:58;;;;;;;0.10;0.10;;;-0.30;99.90;;;;;;5084556;28;20065;-85
2023/03/03 07:23:29;;;;;;;0.10;0.10;;;-0.20;99.90;;;;;;5084651;28;20041;-84
2023/03/03 07:25:54;;;;;;;1.67;0.82;;;-0.10;99.90;;;;;;5051956;28;20123;-84
2023/03/03 07:28:26;;;;;;;0.00;0.00;;;-0.10;99.90;;;;;;5052761;28;20075;-84
2023/03/03 07:30:53;;;;;;;0.70;0.50;;;-0.10;99.90;;;;;;5052441;28;20049;-84
2023/03/03 07:33:28;;;;;;;0.00;0.00;;;-0.10;99.90;;;;;;5050504;28;20047;-84
2023/03/03 07:35:56;;;;;;;0.10;0.10;;;-0.10;99.90;;;;;;5083213;28;20597;-84
2023/03/03 07:38:24;;;;;;;0.00;0.00;;;-0.20;99.90;;;;;;5052764;28;20057;-84
2023/03/03 07:40:54;;;;;;;0.20;0.20;;;-0.20;99.90;;;;;;5051256;28;20147;-84
2023/03/03 07:43:29;;;;;;;0.25;0.22;;;-0.10;99.90;;;;;;5052049;28;20037;-84
2023/03/03 07:46:10;;;;;;;0.00;0.00;;;0.10;99.90;;;;;;5049208;28;20147;-84
2023/03/03 07:48:39;;;;;;;0.05;0.05;;;0.20;99.90;;;;;;5040825;28;20132;-85
2023/03/03 07:51:12;;;;;;;0.08;0.08;;;0.30;99.90;;;;;;5047041;28;20047;-84
2023/03/03 07:53:38;;;;;;;0.00;0.00;;;0.40;99.90;;;;;;5048435;28;20064;-85
2023/03/03 07:56:24;;;;;;;0.00;0.00;;;0.40;99.90;;;;;;5046687;28;20053;-84
2023/03/03 07:58:49;;;;;;;0.15;0.15;;;0.50;99.90;;;;;;5049303;28;20408;-85
2023/03/03 08:01:38;;;;;;;0.00;0.00;;;0.50;99.90;;;;;;5046541;28;20060;-84
2023/03/03 08:04:14;;;;;;;0.03;0.03;;;0.60;99.90;;;;;;5048119;28;20056;-84
2023/03/03 08:06:48;;;;;;;0.00;0.00;;;0.70;99.90;;;;;;5048281;28;20264;-84
2023/03/03 08:09:17;;;;;;;0.03;0.03;;;0.80;99.90;;;;;;5048720;28;20533;-84
2023/03/03 08:11:51;;;;;;;0.00;0.00;;;1.00;99.90;;;;;;5048610;28;20049;-85
2023/03/03 08:14:29;;;;;;;0.10;0.10;;;1.20;99.90;;;;;;5046324;28;20051;-84
2023/03/03 08:16:56;;;;;;;0.00;0.00;;;1.50;99.90;;;;;;5047809;28;20055;-84
2023/03/03 08:19:23;;;;;;;0.32;0.32;;;1.90;99.90;;;;;;5047854;28;20049;-84
2023/03/03 08:21:49;;;;;;;0.20;0.20;;;2.30;99.90;;;;;;5047764;28;20437;-84
2023/03/03 08:24:15;;;;;;;0.00;0.00;;;2.60;99.90;;;;;;5048149;28;20417;-84
2023/03/03 08:26:40;;;;;;;0.32;0.32;;;3.00;99.90;;;;;;5047646;28;20044;-84
2023/03/03 08:29:06;;;;;;;0.55;0.55;;;3.30;99.90;;;;;;5047632;28;20832;-84
2023/03/03 08:31:32;;;;;;;0.00;0.00;;;3.30;99.90;;;;;;5047984;28;20149;-84
2023/03/03 08:33:58;;;;;;;0.00;0.00;;;3.20;99.90;;;;;;5047308;28;20048;-84
2023/03/03 08:36:24;;;;;;;0.05;0.05;;;3.10;99.90;;;;;;5046865;28;20049;-82
2023/03/03 08:38:50;;;;;;;0.03;0.03;;;3.00;99.90;;;;;;5048234;28;20072;-82
2023/03/03 08:41:15;;;;;;;0.20;0.20;;;2.90;99.90;;;;;;5047802;28;20124;-81
2023/03/03 08:43:44;;;;;;;0.00;0.00;;;2.80;99.90;;;;;;5049349;28;20044;-82
2023/03/03 08:46:10;;;;;;;0.10;0.10;;;2.80;99.90;;;;;;5047031;28;20489;-82
2023/03/03 08:48:36;;;;;;;0.28;0.28;;;2.80;99.90;;;;;;5046450;28;20052;-82
2023/03/03 08:51:03;;;;;;;0.10;0.10;;;2.80;99.90;;;;;;5047003;28;20211;-84
2023/03/03 08:53:29;;;;;;;0.15;0.15;;;2.80;99.90;;;;;;5045949;28;20048;-83
2023/03/03 08:55:55;;;;;;;0.00;0.00;;;2.80;99.90;;;;;;5046469;28;20060;-83
2023/03/03 08:58:21;;;;;;;0.00;0.00;;;2.80;99.90;;;;;;5045730;28;20049;-83
2023/03/03 09:00:47;;;;;;;2.75;1.10;;;2.90;99.90;;;;;;5047078;28;20546;-84
2023/03/03 09:03:13;;;;;;;0.00;0.00;;;2.90;99.90;;;;;;5047457;28;20056;-84
2023/03/03 09:05:39;;;;;;;0.15;0.15;;;3.00;99.90;;;;;;5045786;28;20132;-84
2023/03/03 09:08:06;;;;;;;0.00;0.00;;;3.10;99.90;;;;;;5046581;28;20041;-84
2023/03/03 09:10:34;;;;;;;0.00;0.00;;;3.10;99.90;;;;;;5045725;28;20056;-83
2023/03/03 09:13:06;;;;;;;0.00;0.00;;;3.20;99.90;;;;;;5046613;28;20045;-84
2023/03/03 09:15:37;;;;;;;0.00;0.00;;;3.20;99.90;;;;;;5044017;28;20048;-83
2023/03/03 09:18:29;;;;;;;0.08;0.08;;;3.30;99.90;;;;;;5044313;28;20326;-84
2023/03/03 09:20:56;;;;;;;0.38;0.38;;;3.30;99.90;;;;;;5042952;28;20045;-83
2023/03/03 09:23:35;;;;;;;1.95;0.65;;;3.40;99.90;;;;;;5044679;28;20056;-84
2023/03/03 09:26:38;;;;;;;0.30;0.30;;;3.50;99.90;;;;;;5043588;28;20407;-84
2023/03/03 09:29:13;;;;;;;0.60;0.55;;;3.50;99.90;;;;;;5043107;28;20133;-83
2023/03/03 09:31:42;;;;;;;0.22;0.22;;;3.50;99.90;;;;;;5042999;28;20059;-84
2023/03/03 09:34:39;;;;;;;0.98;0.55;;;3.50;99.90;;;;;;5042829;28;20165;-83
2023/03/03 09:37:35;;;;;;;0.30;0.30;;;3.50;99.90;;;;;;5037698;28;20115;-83
2023/03/03 09:40:23;;;;;;;0.32;0.32;;;3.50;99.90;;;;;;5043649;28;20048;-83
2023/03/03 09:43:27;;;;;;;0.10;0.10;;;3.60;99.90;;;;;;5045092;28;20059;-84
2023/03/03 09:46:26;;;;;;;0.82;0.82;;;3.60;99.90;;;;;;5033654;28;20060;-84
2023/03/03 09:49:15;;;;;;;0.47;0.47;;;3.80;99.90;;;;;;5045321;28;20052;-83
2023/03/03 09:52:03;;;;;;;0.00;0.00;;;3.90;99.90;;;;;;5044397;28;20091;-83
2023/03/03 09:54:47;;;;;;;0.00;0.00;;;4.10;99.90;;;;;;5045767;28;20123;-83
2023/03/03 09:57:32;;;;;;;0.10;0.10;;;4.30;99.90;;;;;;5045306;28;20045;-83
2023/03/03 10:00:21;;;;;;;0.20;0.20;;;4.50;99.90;;;;;;5044973;28;20056;-83
2023/03/03 10:03:00;;;;;;;1.27;1.17;;;4.80;99.90;;;;;;5045160;28;20049;-83
2023/03/03 10:05:26;;;;;;;0.10;0.10;;;5.10;99.90;;;;;;5045385;28;20052;-83
2023/03/03 10:08:13;;;;;;;0.20;0.20;;;5.40;99.90;;;;;;5043994;28;20060;-84
2023/03/03 10:10:48;;;;;;;0.13;0.05;;;5.70;99.90;;;;;;5045954;28;20599;-83
2023/03/03 10:13:32;;;;;;;0.25;0.25;;;6.00;99.90;;;;;;5045285;28;20106;-84
2023/03/03 10:16:19;;;;;;;0.00;0.00;;;6.30;1.00;;;;;;5046778;28;20044;-83
2023/03/03 10:18:57;;;;;;;0.08;0.08;;;6.50;1.00;;;;;;5042768;28;20077;-83
2023/03/03 10:21:49;;;;;;;0.08;0.08;;;6.60;99.90;;;;;;5049202;28;20107;-83
2023/03/03 10:24:28;;;;;;;3.80;1.63;;;6.80;99.90;;;;;;5048093;28;20064;-83
2023/03/03 10:27:18;;;;;;;0.00;0.00;;;6.90;99.90;;;;;;5049498;28;20053;-83
2023/03/03 10:29:58;;;;;;;0.10;0.10;;;7.10;99.90;;;;;;5053819;28;20081;-83
2023/03/03 10:32:37;;;;;;;0.50;0.20;;;7.30;99.90;;;;;;5052365;28;20072;-84
2023/03/03 10:35:14;;;;;;;0.98;0.43;;;7.60;99.90;;;;;;5054395;28;20402;-83
2023/03/03 10:37:59;;;;;;;0.00;0.00;;;7.50;99.90;;;;;;5053812;28;20379;-83
2023/03/03 10:40:41;;;;;;;0.52;0.52;;;7.60;99.90;;;;;;5052993;28;20091;-83
2023/03/03 10:43:28;;;;;;;0.00;0.00;;;7.90;99.90;;;;;;5057746;28;20092;-83
2023/03/03 10:46:31;;;;;;;0.43;0.43;;;8.20;1.00;;;;;;5061298;28;20061;-84
2023/03/03 10:49:21;;;;;;;0.52;0.47;;;8.40;99.90;;;;;;5054793;28;20111;-83
2023/03/03 10:52:32;;;;;;;0.00;0.00;;;8.60;78.20;;;;;;5053310;28;20510;-83
2023/03/03 10:55:22;;;;;;;0.20;0.20;;;8.70;92.20;;;;;;5054060;28;20055;-83
2023/03/03 10:57:57;;;;;;;0.17;0.17;;;8.90;99.90;;;;;;5053492;28;20057;-83
2023/03/03 11:00:44;;;;;;;0.00;0.00;;;8.90;1.00;;;;;;5053213;28;20076;-83
2023/03/03 11:03:36;;;;;;;2.28;1.35;;;9.10;99.90;;;;;;5052456;28;20044;-83
2023/03/03 11:06:14;;;;;;;0.73;0.40;;;9.30;99.90;;;;;;5052227;28;20092;-83
2023/03/03 11:08:52;;;;;;;0.00;0.00;;;9.40;1.00;;;;;;5054117;28;20116;-83
2023/03/03 11:11:36;;;;;;;3.95;2.25;;;9.40;99.90;;;;;;5052552;28;20048;-83
2023/03/03 11:14:29;;;;;;;0.22;0.22;;;9.50;1.00;;;;;;5053183;28;20067;-83
2023/03/03 11:17:12;;;;;;;2.78;0.65;;;9.50;1.00;;;;;;5051492;28;21001;-83
2023/03/03 11:20:08;;;;;;;0.10;0.10;;;9.50;99.90;;;;;;5052663;28;20103;-83
2023/03/03 11:22:34;;;;;;;0.00;0.00;;;9.40;1.00;;;;;;5054065;28;20051;-84
2023/03/03 11:25:12;;;;;;;0.03;0.03;;;9.60;99.90;;;;;;5056383;28;20105;-83
2023/03/03 11:27:57;;;;;;;0.55;0.55;;;9.30;1.00;;;;;;5056618;28;20053;-83
2023/03/03 11:31:02;;;;;;;0.00;0.00;;;9.50;96.80;;;;;;5058795;28;20044;-83
2023/03/03 11:33:56;;;;;;;0.08;0.08;;;9.70;99.90;;;;;;5058641;28;20072;-83
2023/03/03 11:36:26;;;;;;;0.77;0.47;;;9.80;99.90;;;;;;5043958;28;20063;-83
2023/03/03 11:38:55;;;;;;;0.00;0.00;;;9.80;83.20;;;;;;5053469;28;20045;-83
2023/03/03 11:41:38;;;;;;;1.20;0.95;;;9.90;1.00;;;;;;5052511;28;20096;-83
2023/03/03 11:44:19;;;;;;;0.32;0.30;;;10.00;1.00;;;;;;5052593;28;20045;-83
2023/03/03 11:46:54;;;;;;;0.68;0.50;;;9.70;1.00;;;;;;5052039;28;20128;-83
2023/03/03 11:49:25;;;;;;;0.20;0.20;;;9.90;1.00;;;;;;5053244;28;20080;-83
2023/03/03 11:52:01;;;;;;;0.10;0.10;;;10.30;1.00;;;;;;5051996;28;20280;-83
2023/03/03 11:54:48;;;;;;;0.00;0.00;;;10.50;1.00;;;;;;5051515;28;20560;-83
2023/03/03 11:57:26;;;;;;;0.00;0.00;;;10.50;99.90;;;;;;5052429;28;20056;-83
2023/03/03 12:00:00;;;;;;;1.65;0.52;;;10.70;1.00;;;;;;5052273;28;20080;-83
2023/03/03 12:02:53;;;;;;;0.22;0.20;;;10.20;99.90;;;;;;5050625;28;20985;-83
2023/03/03 12:05:38;;;;;;;0.00;0.00;;;10.20;99.90;;;;;;5049311;28;20075;-83
2023/03/03 12:08:36;;;;;;;0.00;0.00;;;10.00;99.90;;;;;;5053141;28;20059;-83
2023/03/03 12:11:24;;;;;;;0.00;0.00;;;9.80;99.90;;;;;;5051762;28;20098;-83
2023/03/03 12:14:18;;;;;;;0.40;0.40;;;9.60;99.90;;;;;;5051429;28;20053;-83
2023/03/03 12:17:02;;;;;;;0.00;0.00;;;9.60;99.90;;;;;;5049783;28;20060;-83
2023/03/03 12:19:52;;;;;;;0.00;0.00;;;9.50;99.90;;;;;;5052569;28;20056;-83
2023/03/03 12:22:54;;;;;;;0.57;0.57;;;9.20;99.90;;;;;;5053033;28;20045;-83
2023/03/03 12:25:22;;;;;;;0.10;0.10;;;9.30;99.90;;;;;;5052423;28;20075;-83
2023/03/03 12:27:56;;;;;;;0.00;0.00;;;9.20;99.90;;;;;;5053163;28;20045;-83
2023/03/03 12:31:01;;;;;;;0.00;0.00;;;9.20;99.90;;;;;;5054801;28;20471;-83
2023/03/03 12:33:55;;;;;;;0.20;0.10;;;9.40;99.90;;;;;;5030152;28;20542;-83
2023/03/03 12:36:27;;;;;;;1.17;0.55;;;9.20;99.90;;;;;;5052911;28;20052;-83
2023/03/03 12:39:11;;;;;;;0.00;0.00;;;9.30;99.90;;;;;;5053458;28;20049;-83
2023/03/03 12:41:50;;;;;;;0.52;0.47;;;9.60;99.90;;;;;;5051879;28;20049;-84
2023/03/03 12:44:40;;;;;;;0.05;0.05;;;9.90;99.90;;;;;;5051721;28;20092;-83
2023/03/03 12:47:19;;;;;;;0.00;0.00;;;10.20;99.90;;;;;;5051413;28;20133;-84
2023/03/03 12:49:45;;;;;;;0.00;0.00;;;10.40;99.90;;;;;;5052721;28;20089;-83
2023/03/03 12:52:22;;;;;;;0.00;0.00;;;10.50;99.90;;;;;;5051052;28;20055;-83
2023/03/03 12:54:47;;;;;;;0.00;0.00;;;10.60;99.90;;;;;;5052661;28;20116;-83
2023/03/03 12:57:31;;;;;;;0.00;0.00;;;10.70;99.90;;;;;;5050983;28;20073;-83
2023/03/03 13:00:23;;;;;;;0.00;0.00;;;11.00;99.90;;;;;;5050705;28;20052;-84
2023/03/03 13:03:18;;;;;;;0.00;0.00;;;10.90;99.90;;;;;;5047670;28;20135;-83
2023/03/03 13:06:11;;;;;;;0.00;0.00;;;10.40;99.90;;;;;;5051225;28;20049;-83
2023/03/03 13:08:56;;;;;;;0.98;0.75;;;10.60;99.90;;;;;;5048788;28;20367;-84
2023/03/03 13:11:50;;;;;;;0.63;0.63;;;10.60;99.90;;;;;;5051271;28;20568;-84
2023/03/03 13:14:44;;;;;;;0.00;0.00;;;10.50;99.90;;;;;;5052577;28;20129;-83
2023/03/03 13:17:28;;;;;;;0.00;0.00;;;10.60;99.90;;;;;;5052675;28;20044;-83
2023/03/03 13:19:59;;;;;;;0.00;0.00;;;10.30;99.90;;;;;;5051147;28;20053;-83
2023/03/03 13:22:31;;;;;;;0.00;0.00;;;9.90;99.90;;;;;;5052116;28;20057;-83
2023/03/03 13:25:00;;;;;;;2.08;0.80;;;9.60;99.90;;;;;;5052188;28;20132;-83